Terminal Aerodrome Forecast
Issued by NWS

Home | Current Version | Previous Version | Text Only | Print | Product List | Glossary On
Versions: 1 2 3 4 5 6 7 8 9 10 11 12 13
000
FTUS45 KTWC 010546
TAFOLS
TAF
KOLS 010546Z 0106/0206 15006KT P6SM SCT080
     FM011900 21010KT P6SM BKN080
     FM020300 VRB03KT P6SM SCT080=

USA.gov is the U.S. government's official web portal to all federal, state and local government web resources and services.